Hudson, NY

8:38 AM EST on March 02, 2015 (GMT -0500)
Dragonfly Farm | Change Station
CLOSE
Current Station
Personal Weather Station
Location: Hudson, NY
Elevation: 184 ft
Nearby Weather Stations

Elev 184 ft 42.21 °N, 73.81 °W | Updated 7 minutes ago

Mostly Cloudy
Mostly Cloudy
26.9 °F
Feels Like 27 °F
N
1.0
Wind Variable Wind from NNE
Gusts 3.0 mph

Today
High -- | Low -- °F
--% Chance of Precip.
Yesterday
High -- | Low -- °F
Precip. -- in
6:29 AM 5:46 PM
Waxing Gibbous, 91% visible
Pressure 29.96 in
Visibility 1.8 miles
Clouds Mostly Cloudy 1500 ft
Mostly Cloudy 2200 ft
Overcast 2900 ft
Windchill 27 °F
Dew Point 22 °F
Humidity 80%
Rainfall 0.00 in
Snow Depth Not available.
UV 0 out of 12
Pollen .40 out of 12
Air Quality Not available.
Flu Activity Not available.
SPECI KPSF 021323Z AUTO 30019G26KT 1 3/4SM -SN BKN015 BKN022 OVC029 M05/M08 A2996 RMK AO2 PK WND 29027/1309 P0000 T10501078

More Conditions Fewer Conditions

Pressure 29.96 in
Visibility 1.8 miles
Clouds Mostly Cloudy 1500 ft
Mostly Cloudy 2200 ft
Overcast 2900 ft
Windchill 27 °F
Dew Point 22 °F
Humidity 80%
Rainfall 0.00 in
Snow Depth Not available.
UV 0 out of 12
Pollen .40 out of 12
Air Quality Not available.
Flu Activity Not available.
SPECI KPSF 021323Z AUTO 30019G26KT 1 3/4SM -SN BKN015 BKN022 OVC029 M05/M08 A2996 RMK AO2 PK WND 29027/1309 P0000 T10501078

More Conditions Fewer Conditions

10-Day Weather Forecast

Almanac

Astronomy

Mar. 02, 2015 Rise Set
Actual Time
Civil Twilight
Nautical Twilight
Astronomical Twilight
Moon
Length of Visible Light
Length of Day
Tomorrow will be .
, % of the Moon is Illuminated

Today's Extremes

State Highs State Lows

Community

WunderPhotos

Upload Photos

1,801,782 photos uploaded!

WunderBlogs® & News

Nearby

Air Quality

  Air Quality AQ Index Pollutant
Not available.

Snow Depth

Station Depth Elevation

Earthquake Activity

City Distance Mag. Time & Date
Minimum magnitude displayed is 2.5.

Coastal Water Temperatures

Place Temperature

Nearby Weather Stations